Time;durP1;ratioP1;P1;durP2;ratioP2;P2;SDS_P1;SDS_P2;PMS_P1;PMS_P2;Temp;Humidity;BMP_temperature;BMP_pressure;BME280_temperature;BME280_humidity;BME280_pressure;Samples;Min_cycle;Max_cycle;Signal;HPM_P1;HPM_P2
2022/09/01 00:01:41;;;;;;;;;;;;;;;16.69;71.02;100071.22;12213961;19;19990;-81
2022/09/01 00:05:45;;;;;;;;;;;;;;;16.65;70.73;100072.88;12218949;19;19914;-80
2022/09/01 00:09:46;;;;;;;;;;;;;;;16.58;71.67;100073.19;12195714;19;19959;-81
2022/09/01 00:13:49;;;;;;;;;;;;;;;16.56;71.62;100074.59;12213723;19;19919;-81
2022/09/01 00:17:50;;;;;;;;;;;;;;;16.52;71.95;100085.47;12210230;19;19915;-82
2022/09/01 00:21:52;;;;;;;;;;;;;;;16.53;71.87;100080.72;12194603;19;19924;-81
2022/09/01 00:25:54;;;;;;;;;;;;;;;16.50;72.12;100071.00;12214750;19;19927;-81
2022/09/01 00:29:55;;;;;;;;;;;;;;;16.45;72.60;100079.38;12215328;19;19923;-81
2022/09/01 00:33:58;;;;;;;;;;;;;;;16.44;72.33;100076.84;12190536;19;19975;-80
2022/09/01 00:37:59;;;;;;;;;;;;;;;16.42;71.81;100074.38;12213619;19;19974;-79
2022/09/01 00:42:01;;;;;;;;;;;;;;;16.41;72.42;100067.97;12216032;19;19922;-79
2022/09/01 00:46:04;;;;;;;;;;;;;;;16.39;72.71;100059.09;12187181;19;19922;-78
2022/09/01 00:50:11;;;;;;;;;;;;;;;16.38;72.91;100062.13;12219637;19;19950;-78
2022/09/01 00:54:15;;;;;;;;;;;;;;;16.35;72.31;100057.97;12194912;19;20389;-80
2022/09/01 00:58:16;;;;;;;;;;;;;;;16.40;72.65;100057.13;12211624;19;20357;-79
2022/09/01 01:02:21;;;;;;;;;;;;;;;16.34;73.57;100058.25;12215146;19;20360;-78
2022/09/01 01:06:27;;;;;;;;;;;;;;;16.38;73.41;100051.84;12189316;19;19915;-80
2022/09/01 01:10:35;;;;;;;;;;;;;;;16.38;73.35;100051.84;12212474;19;19914;-81
2022/09/01 01:14:38;;;;;;;;;;;;;;;16.41;72.73;100047.66;12209095;19;20261;-81
2022/09/01 01:18:40;;;;;;;;;;;;;;;16.37;73.01;100047.41;12185707;19;20584;-81
2022/09/01 01:23:07;;;;;;;;;;;;;;;16.37;72.75;100050.19;12211023;19;19931;-80
2022/09/01 01:27:11;;;;;;;;;;;;;;;16.35;72.56;100048.78;12188254;19;19951;-79
2022/09/01 01:31:17;;;;;;;;;;;;;;;16.36;72.53;100042.97;12211186;19;20330;-80
2022/09/01 01:35:22;;;;;;;;;;;;;;;16.34;72.51;100045.19;12246864;19;19923;-77
2022/09/01 01:39:24;;;;;;;;;;;;;;;16.31;72.61;100037.41;12245382;19;19907;-77
2022/09/01 01:43:27;;;;;;;;;;;;;;;16.26;73.50;100042.16;12264342;19;19936;-77
2022/09/01 01:47:29;;;;;;;;;;;;;;;16.20;73.40;100044.09;12248989;19;19918;-80
2022/09/01 01:51:31;;;;;;;;;;;;;;;16.15;73.50;100050.53;12195299;19;20167;-81
2022/09/01 01:55:34;;;;;;;;;;;;;;;16.11;73.75;100045.78;12202524;19;19914;-79
2022/09/01 01:59:39;;;;;;;;;;;;;;;16.14;73.56;100048.00;12213271;19;20325;-79
2022/09/01 02:03:40;;;;;;;;;;;;;;;16.15;72.95;100041.31;12186305;19;20329;-81
2022/09/01 02:07:42;;;;;;;;;;;;;;;16.15;73.22;100046.88;12210973;19;19911;-79
2022/09/01 02:11:44;;;;;;;;;;;;;;;16.12;73.13;100044.66;12212799;19;19931;-81
2022/09/01 02:15:48;;;;;;;;;;;;;;;16.06;73.22;100037.44;12187432;19;19943;-79
2022/09/01 02:19:50;;;;;;;;;;;;;;;16.03;73.40;100040.78;12206227;19;19920;-81
2022/09/01 02:23:59;;;;;;;;;;;;;;;15.98;73.20;100044.44;12208252;19;19922;-80
2022/09/01 02:28:08;;;;;;;;;;;;;;;15.99;73.18;100036.91;12188373;19;20384;-80
2022/09/01 02:32:10;;;;;;;;;;;;;;;15.93;74.33;100031.34;12212383;19;19914;-79
2022/09/01 02:36:14;;;;;;;;;;;;;;;15.99;73.52;100036.91;12186026;19;19955;-81
2022/09/01 02:40:15;;;;;;;;;;;;;;;16.00;73.97;100035.78;12211137;19;19922;-80
2022/09/01 02:44:20;;;;;;;;;;;;;;;15.93;74.23;100036.91;12207540;19;19959;-81
2022/09/01 02:48:36;;;;;;;;;;;;;;;15.93;73.96;100025.81;12187201;19;19915;-80
2022/09/01 02:52:39;;;;;;;;;;;;;;;15.93;73.67;100025.81;12200440;19;19911;-80
2022/09/01 02:56:43;;;;;;;;;;;;;;;15.92;74.44;100026.09;12207581;19;20304;-80
2022/09/01 03:00:51;;;;;;;;;;;;;;;15.93;73.73;100028.59;12185156;19;19920;-81
2022/09/01 03:04:54;;;;;;;;;;;;;;;15.92;74.01;100032.47;12204656;19;20412;-79
2022/09/01 03:09:00;;;;;;;;;;;;;;;15.87;73.95;100021.38;12208777;19;20452;-80
2022/09/01 03:13:05;;;;;;;;;;;;;;;15.83;74.59;100027.78;12186774;19;19903;-80
2022/09/01 03:17:06;;;;;;;;;;;;;;;15.81;74.68;100019.72;12207101;19;20353;-81
2022/09/01 03:21:14;;;;;;;;;;;;;;;15.77;74.35;100021.38;12185406;19;19911;-80
2022/09/01 03:25:18;;;;;;;;;;;;;;;15.70;74.88;100027.25;12210480;19;19914;-80
2022/09/01 03:29:21;;;;;;;;;;;;;;;15.66;75.13;100028.84;12211183;19;19907;-81
2022/09/01 03:33:24;;;;;;;;;;;;;;;15.62;75.46;100026.94;12185630;19;19911;-81
2022/09/01 03:37:26;;;;;;;;;;;;;;;15.55;75.59;100020.78;12228939;19;19957;-78
2022/09/01 03:41:29;;;;;;;;;;;;;;;15.48;76.42;100030.25;12261577;19;19924;-78
2022/09/01 03:45:37;;;;;;;;;;;;;;;15.42;76.72;100033.31;12218974;19;20321;-79
2022/09/01 03:49:42;;;;;;;;;;;;;;;15.36;76.37;100037.19;12209420;19;20360;-81
2022/09/01 03:53:44;;;;;;;;;;;;;;;15.28;76.60;100038.56;12215573;19;19910;-83
2022/09/01 03:57:46;;;;;;;;;;;;;;;15.24;77.08;100037.44;12200690;19;19942;-81
2022/09/01 04:01:48;;;;;;;;;;;;;;;15.18;77.07;100035.78;12218407;19;19967;-80
2022/09/01 04:05:50;;;;;;;;;;;;;;;15.15;77.65;100039.09;12218784;19;19986;-81
2022/09/01 04:09:52;;;;;;;;;;;;;;;15.14;77.80;100037.41;12200251;19;19929;-80
2022/09/01 04:13:54;;;;;;;;;;;;;;;15.17;77.45;100040.50;12218790;19;20832;-81
2022/09/01 04:18:08;;;;;;;;;;;;;;;15.21;77.30;100040.78;12219092;19;19915;-80
2022/09/01 04:22:13;;;;;;;;;;;;;;;15.27;78.40;100042.44;12199992;19;19931;-81
2022/09/01 04:26:19;;;;;;;;;;;;;;;15.36;78.26;100039.97;12220008;19;20361;-80
2022/09/01 04:30:25;;;;;;;;;;;;;;;15.46;77.39;100042.72;12197152;19;19940;-80
2022/09/01 04:34:27;;;;;;;;;;;;;;;15.50;78.21;100047.47;12219242;19;19915;-77
2022/09/01 04:38:30;;;;;;;;;;;;;;;15.65;77.01;100048.59;12219392;19;19919;-79
2022/09/01 04:42:31;;;;;;;;;;;;;;;15.74;76.58;100058.06;12195883;19;19919;-80
2022/09/01 04:46:37;;;;;;;;;;;;;;;15.80;76.29;100054.19;12222407;19;19918;-79
2022/09/01 04:50:40;;;;;;;;;;;;;;;15.83;76.07;100066.69;12215694;19;19926;-81
2022/09/01 04:54:53;;;;;;;;;;;;;;;15.80;76.27;100070.84;12194185;19;19914;-80
2022/09/01 04:58:55;;;;;;;;;;;;;;;15.79;76.36;100058.03;12216609;19;19910;-80
2022/09/01 05:03:03;;;;;;;;;;;;;;;15.79;76.21;100069.16;12214388;19;19911;-79
2022/09/01 05:07:42;;;;;;;;;;;;;;;15.81;76.37;100077.22;12112621;19;2004655;-80
2022/09/01 05:11:44;;;;;;;;;;;;;;;15.82;76.52;100057.47;12216442;19;20326;-81
2022/09/01 05:16:02;;;;;;;;;;;;;;;15.83;76.24;100066.69;12192862;19;19917;-80
2022/09/01 05:20:04;;;;;;;;;;;;;;;15.86;76.04;100066.94;12217305;19;19919;-80
2022/09/01 05:24:07;;;;;;;;;;;;;;;15.87;76.45;100065.81;12201605;19;19982;-79
2022/09/01 05:28:14;;;;;;;;;;;;;;;15.92;76.45;100071.38;12216873;19;20333;-80
2022/09/01 05:32:16;;;;;;;;;;;;;;;15.93;76.27;100067.50;12216513;19;20357;-79
2022/09/01 05:36:21;;;;;;;;;;;;;;;15.98;76.31;100071.41;12191776;19;19922;-79
2022/09/01 05:40:25;;;;;;;;;;;;;;;16.02;76.19;100073.31;12214858;19;20018;-80
2022/09/01 05:44:27;;;;;;;;;;;;;;;16.10;76.39;100083.06;12210541;19;19910;-79
2022/09/01 05:48:38;;;;;;;;;;;;;;;16.18;75.86;100082.47;12192805;19;20348;-79
2022/09/01 05:52:46;;;;;;;;;;;;;;;16.28;75.82;100082.47;12213366;19;20685;-80
2022/09/01 05:56:48;;;;;;;;;;;;;;;16.39;74.95;100078.56;12213644;19;19915;-79
2022/09/01 06:00:57;;;;;;;;;;;;;;;16.52;74.76;100079.91;12192675;19;19943;-79
2022/09/01 06:04:59;;;;;;;;;;;;;;;16.60;74.44;100079.31;12209859;19;19947;-78
2022/09/01 06:09:06;;;;;;;;;;;;;;;16.72;74.60;100078.19;12202219;19;20606;-80
2022/09/01 06:13:08;;;;;;;;;;;;;;;16.90;74.02;100080.34;12173960;19;20280;-80
2022/09/01 06:17:15;;;;;;;;;;;;;;;16.99;73.38;100075.84;12190285;19;19974;-79
2022/09/01 06:21:18;;;;;;;;;;;;;;;17.10;73.39;100082.19;12188506;19;19951;-78
2022/09/01 06:25:25;;;;;;;;;;;;;;;17.18;73.07;100081.59;12206361;19;20001;-76
2022/09/01 06:29:28;;;;;;;;;;;;;;;17.27;72.75;100077.06;12210269;19;19915;-78
2022/09/01 06:33:31;;;;;;;;;;;;;;;17.39;72.22;100087.88;12186512;19;19939;-79
2022/09/01 06:37:33;;;;;;;;;;;;;;;17.54;71.73;100087.75;12213245;19;20258;-78
2022/09/01 06:41:40;;;;;;;;;;;;;;;17.68;70.94;100084.34;12213065;19;21155;-80
2022/09/01 06:45:53;;;;;;;;;;;;;;;17.76;70.58;100081.75;12192873;19;20288;-80
2022/09/01 06:49:58;;;;;;;;;;;;;;;17.93;70.19;100080.53;12218473;19;19911;-78
2022/09/01 06:54:01;;;;;;;;;;;;;;;18.06;69.56;100082.66;12217384;19;19914;-77
2022/09/01 06:58:07;;;;;;;;;;;;;;;18.21;69.56;100087.25;12199864;19;19922;-77
2022/09/01 07:02:15;;;;;;;;;;;;;;;18.40;68.86;100087.31;12209455;19;19929;-78
2022/09/01 07:06:41;;;;;;;;;;;;;;;18.45;68.08;100095.66;12187056;19;19922;-80
2022/09/01 07:11:30;;;;;;;;;;;;;;;18.74;67.92;100103.16;12208597;19;19936;-79
2022/09/01 07:15:54;;;;;;;;;;;;;;;18.96;66.53;100100.66;12187788;19;19923;-78
2022/09/01 07:20:20;;;;;;;;;;;;;;;19.41;65.54;100103.97;12210787;19;19931;-79
2022/09/01 07:24:28;;;;;;;;;;;;;;;19.44;64.34;100103.34;12184777;19;20403;-80
2022/09/01 07:28:51;;;;;;;;;;;;;;;19.49;64.36;100108.06;12210135;19;19939;-78
2022/09/01 07:33:01;;;;;;;;;;;;;;;19.74;64.76;100106.84;12218009;19;20249;-79
2022/09/01 07:37:26;;;;;;;;;;;;;;;20.02;63.95;100111.44;12199458;19;19925;-78
2022/09/01 07:41:48;;;;;;;;;;;;;;;20.22;63.08;100112.19;12219445;19;19947;-78
2022/09/01 07:46:31;;;;;;;;;;;;;;;20.27;62.65;100109.31;12189802;19;20397;-79
2022/09/01 07:50:47;;;;;;;;;;;;;;;20.42;61.57;100106.22;12222080;19;19918;-78
2022/09/01 07:55:12;;;;;;;;;;;;;;;20.66;60.89;100108.06;12198342;19;19925;-79
2022/09/01 07:59:14;;;;;;;;;;;;;;;20.87;60.50;100105.69;12223582;19;19919;-79
2022/09/01 08:03:26;;;;;;;;;;;;;;;20.94;59.48;100112.53;12196196;19;19928;-78
2022/09/01 08:07:27;;;;;;;;;;;;;;;20.93;59.40;100119.25;12219819;19;20372;-78
2022/09/01 08:11:31;;;;;;;;;;;;;;;20.97;59.32;100113.03;12221944;19;19919;-78
2022/09/01 08:15:53;;;;;;;;;;;;;;;21.08;59.39;100120.91;12198209;19;20352;-78
2022/09/01 08:20:18;;;;;;;;;;;;;;;21.46;57.53;100117.06;12218235;19;19922;-81
2022/09/01 08:24:25;;;;;;;;;;;;;;;21.47;56.62;100125.13;12196693;19;20256;-78
2022/09/01 08:28:27;;;;;;;;;;;;;;;21.35;57.10;100119.22;12213716;19;19917;-79
2022/09/01 08:32:31;;;;;;;;;;;;;;;21.57;57.19;100113.72;12217418;19;19915;-79
2022/09/01 08:36:33;;;;;;;;;;;;;;;21.90;55.97;100110.69;12197191;19;19911;-78
2022/09/01 08:40:37;;;;;;;;;;;;;;;22.11;55.96;100122.22;12221066;19;19943;-80
2022/09/01 08:44:44;;;;;;;;;;;;;;;22.28;55.33;100127.97;12216686;19;19947;-81
2022/09/01 08:48:49;;;;;;;;;;;;;;;22.49;54.43;100119.84;12199981;19;20627;-80
2022/09/01 08:53:33;;;;;;;;;;;;;;;22.64;53.87;100115.78;12220494;19;19919;-79
2022/09/01 08:57:37;;;;;;;;;;;;;;;22.67;53.42;100117.94;12197491;19;19915;-80
2022/09/01 09:02:12;;;;;;;;;;;;;;;22.94;53.17;100116.06;12218174;19;19925;-81
2022/09/01 09:06:24;;;;;;;;;;;;;;;23.22;53.20;100119.47;12195191;19;19918;-80
2022/09/01 09:10:30;;;;;;;;;;;;;;;23.52;51.54;100114.91;12221125;19;20333;-80
2022/09/01 09:14:32;;;;;;;;;;;;;;;23.73;51.20;100112.28;12215652;19;19929;-79
2022/09/01 09:18:47;;;;;;;;;;;;;;;24.03;49.77;100110.47;12197456;19;19928;-79
2022/09/01 09:22:57;;;;;;;;;;;;;;;24.06;49.30;100112.63;12216659;19;19939;-80
2022/09/01 09:27:01;;;;;;;;;;;;;;;24.37;47.99;100103.13;12215999;19;19918;-79
2022/09/01 09:31:21;;;;;;;;;;;;;;;24.88;47.46;100101.31;12188572;19;19974;-79
2022/09/01 09:35:22;;;;;;;;;;;;;;;25.36;47.19;100097.22;12216597;19;19921;-80
2022/09/01 09:39:27;;;;;;;;;;;;;;;25.18;46.41;100098.53;12199554;19;20237;-81
2022/09/01 09:43:45;;;;;;;;;;;;;;;25.58;45.40;100086.78;12219018;19;19919;-80
2022/09/01 09:47:48;;;;;;;;;;;;;;;25.23;44.06;100093.50;12256522;19;19914;-79
2022/09/01 09:51:51;;;;;;;;;;;;;;;25.06;44.81;100089.94;12249102;19;19903;-82
2022/09/01 09:55:56;;;;;;;;;;;;;;;25.30;45.62;100081.69;12242794;19;19923;-79
2022/09/01 10:00:07;;;;;;;;;;;;;;;25.60;44.31;100073.97;12224327;19;19910;-80
2022/09/01 10:04:29;;;;;;;;;;;;;;;26.05;43.67;100073.28;12198825;19;19922;-81
2022/09/01 10:08:43;;;;;;;;;;;;;;;26.04;42.27;100065.16;12220136;19;19922;-81
2022/09/01 10:12:46;;;;;;;;;;;;;;;26.32;41.88;100071.81;12198842;19;19922;-80
2022/09/01 10:16:51;;;;;;;;;;;;;;;26.45;41.84;100066.22;12220195;19;19911;-80
2022/09/01 10:20:59;;;;;;;;;;;;;;;26.76;40.95;100060.03;12216297;19;19971;-80
2022/09/01 10:25:03;;;;;;;;;;;;;;;26.90;40.50;100065.34;12198213;19;20237;-81
2022/09/01 10:29:12;;;;;;;;;;;;;;;26.92;40.20;100066.63;12213865;19;19919;-80
2022/09/01 10:33:16;;;;;;;;;;;;;;;26.92;39.07;100057.31;12196650;19;19944;-80
2022/09/01 10:37:23;;;;;;;;;;;;;;;26.84;38.81;100053.44;12217007;19;20329;-80
2022/09/01 10:41:39;;;;;;;;;;;;;;;26.91;38.85;100052.84;12216168;19;19931;-83
2022/09/01 10:45:43;;;;;;;;;;;;;;;26.96;38.73;100056.25;12191059;19;20407;-80
2022/09/01 10:49:45;;;;;;;;;;;;;;;26.78;38.99;100046.38;12218400;19;20262;-80
2022/09/01 10:53:51;;;;;;;;;;;;;;;26.69;39.00;100046.47;12215277;19;20550;-80
2022/09/01 10:57:53;;;;;;;;;;;;;;;26.93;38.94;100036.34;12192133;19;19922;-81
2022/09/01 11:02:07;;;;;;;;;;;;;;;27.22;38.36;100041.75;12213279;19;20407;-79
2022/09/01 11:06:33;;;;;;;;;;;;;;;27.56;35.97;100039.53;12205607;19;19975;-83
2022/09/01 11:10:46;;;;;;;;;;;;;;;27.11;36.05;100040.56;12226986;19;20266;-82
2022/09/01 11:14:57;;;;;;;;;;;;;;;26.90;37.40;100031.41;12223630;19;19922;-80
2022/09/01 11:19:26;;;;;;;;;;;;;;;26.36;37.38;100032.41;12202696;19;19919;-81
2022/09/01 11:23:33;;;;;;;;;;;;;;;26.17;37.64;100032.94;12220716;19;19915;-81
2022/09/01 11:27:46;;;;;;;;;;;;;;;26.59;37.86;100022.34;12200936;19;19920;-82
2022/09/01 11:31:49;;;;;;;;;;;;;;;27.16;36.54;100020.56;12218179;19;19920;-81
2022/09/01 11:35:57;;;;;;;;;;;;;;;27.81;36.00;100019.66;12223951;19;19918;-81
2022/09/01 11:40:03;;;;;;;;;;;;;;;28.03;35.86;100019.06;12205722;19;19914;-81
2022/09/01 11:44:21;;;;;;;;;;;;;;;28.56;34.13;100016.88;12230079;19;19943;-80
2022/09/01 11:48:25;;;;;;;;;;;;;;;28.68;33.97;100003.78;12252547;19;19946;-80
2022/09/01 11:52:31;;;;;;;;;;;;;;;28.93;32.55;99993.84;12267262;19;19932;-81
2022/09/01 11:56:33;;;;;;;;;;;;;;;29.95;32.28;99992.81;12265808;19;19903;-81
2022/09/01 12:00:37;;;;;;;;;;;;;;;30.19;30.50;99997.31;12210892;19;19932;-83
2022/09/01 12:04:39;;;;;;;;;;;;;;;30.60;30.70;99992.78;12227087;19;19922;-82
2022/09/01 12:08:50;;;;;;;;;;;;;;;30.90;29.69;99988.41;12228759;19;20025;-82
2022/09/01 12:13:10;;;;;;;;;;;;;;;31.00;29.15;99980.03;12205908;19;19915;-83
2022/09/01 12:17:18;;;;;;;;;;;;;;;30.60;29.11;99966.38;12233839;19;19959;-82
2022/09/01 12:21:41;;;;;;;;;;;;;;;29.96;30.06;99969.72;12207612;19;19935;-81
2022/09/01 12:25:44;;;;;;;;;;;;;;;28.75;31.00;99969.94;12227286;19;20290;-83
2022/09/01 12:29:46;;;;;;;;;;;;;;;28.24;31.60;99975.50;12227854;19;19915;-82
2022/09/01 12:33:47;;;;;;;;;;;;;;;28.48;32.20;99966.03;12200536;19;20383;-82
2022/09/01 12:37:51;;;;;;;;;;;;;;;29.83;30.06;99962.56;12229701;19;19903;-82
2022/09/01 12:42:23;;;;;;;;;;;;;;;30.88;29.26;99957.50;12227661;19;19966;-81
2022/09/01 12:46:43;;;;;;;;;;;;;;;31.77;28.52;99947.28;12200066;19;19918;-80
2022/09/01 12:50:49;;;;;;;;;;;;;;;32.26;27.65;99953.09;12226753;19;19935;-82
2022/09/01 12:54:53;;;;;;;;;;;;;;;32.02;27.00;99955.31;12205843;19;20277;-83
2022/09/01 12:59:03;;;;;;;;;;;;;;;32.17;26.74;99947.72;12229447;19;20356;-83
2022/09/01 13:03:13;;;;;;;;;;;;;;;31.72;27.13;99949.66;12224679;19;19907;-83
2022/09/01 13:07:14;;;;;;;;;;;;;;;31.68;26.71;99952.50;12200355;19;19935;-82
2022/09/01 13:11:17;;;;;;;;;;;;;;;31.79;27.19;99946.88;12223409;19;19995;-83
2022/09/01 13:15:19;;;;;;;;;;;;;;;32.20;26.22;99952.63;12202899;19;19966;-83
2022/09/01 13:19:22;;;;;;;;;;;;;;;32.62;25.78;99934.25;12223325;19;19927;-83
2022/09/01 13:23:31;;;;;;;;;;;;;;;32.50;26.46;99931.72;12221456;19;19966;-82
2022/09/01 13:27:32;;;;;;;;;;;;;;;32.39;26.12;99928.75;12199483;19;19911;-83
2022/09/01 13:31:34;;;;;;;;;;;;;;;31.23;27.04;99925.84;12224045;19;19914;-82
2022/09/01 13:35:36;;;;;;;;;;;;;;;31.51;26.85;99921.75;12223633;19;19920;-82
2022/09/01 13:39:37;;;;;;;;;;;;;;;31.18;26.97;99916.88;12201709;19;19915;-82
2022/09/01 13:43:40;;;;;;;;;;;;;;;30.43;28.03;99922.25;12218290;19;19906;-82
2022/09/01 13:47:42;;;;;;;;;;;;;;;31.06;27.60;99915.09;12221446;19;20265;-82
2022/09/01 13:52:04;;;;;;;;;;;;;;;31.54;26.87;99912.44;12195296;19;19939;-82
2022/09/01 13:56:05;;;;;;;;;;;;;;;32.54;25.83;99899.13;12218181;19;20613;-82
2022/09/01 14:00:09;;;;;;;;;;;;;;;31.91;25.87;99905.94;12222466;19;19923;-83
2022/09/01 14:04:11;;;;;;;;;;;;;;;31.75;26.16;99901.28;12195257;19;20958;-82
2022/09/01 14:08:14;;;;;;;;;;;;;;;30.68;26.78;99901.91;12218555;19;19914;-82
2022/09/01 14:12:16;;;;;;;;;;;;;;;30.07;27.64;99898.88;12201740;19;19914;-82
2022/09/01 14:16:17;;;;;;;;;;;;;;;29.83;27.85;99900.06;12217970;19;19911;-82
2022/09/01 14:20:21;;;;;;;;;;;;;;;29.49;28.00;99902.66;12219249;19;19927;-82
2022/09/01 14:24:23;;;;;;;;;;;;;;;29.16;28.52;99893.88;12194048;19;19947;-82
2022/09/01 14:28:25;;;;;;;;;;;;;;;29.34;28.50;99892.22;12217922;19;20560;-82
2022/09/01 14:32:28;;;;;;;;;;;;;;;29.07;28.83;99891.25;12218370;19;19911;-82
2022/09/01 14:36:30;;;;;;;;;;;;;;;28.73;29.10;99882.38;12190041;19;19931;-82
2022/09/01 14:40:32;;;;;;;;;;;;;;;28.63;29.74;99894.31;12214853;19;20396;-82
2022/09/01 14:44:37;;;;;;;;;;;;;;;28.34;29.74;99887.91;12208774;19;19931;-82
2022/09/01 14:48:39;;;;;;;;;;;;;;;28.11;29.97;99882.13;12193124;19;19922;-83
2022/09/01 14:52:41;;;;;;;;;;;;;;;27.82;30.78;99883.41;12222026;19;20333;-81
2022/09/01 14:56:44;;;;;;;;;;;;;;;27.75;30.35;99876.69;12215899;19;19922;-82
2022/09/01 15:01:05;;;;;;;;;;;;;;;27.82;30.64;99874.09;12194424;19;20404;-81
2022/09/01 15:06:03;;;;;;;8.00;2.80;;;;;;;27.72;30.92;99873.41;12191270;19;20339;-81
2022/09/01 15:10:07;;;;;;;3.42;2.20;;;;;;;27.71;30.62;99874.56;12229334;19;20018;-82
2022/09/01 15:14:09;;;;;;;3.63;2.95;;;;;;;27.79;30.95;99866.31;12265701;19;20014;-81
2022/09/01 15:18:11;;;;;;;3.97;2.63;;;;;;;27.84;30.65;99866.03;12273839;19;20417;-81
2022/09/01 15:22:13;;;;;;;5.65;2.35;;;;;;;27.71;30.24;99860.41;12252355;19;20115;-82
2022/09/01 15:26:15;;;;;;;5.40;2.33;;;;;;;27.76;30.67;99858.53;12270729;19;20348;-82
2022/09/01 15:30:20;;;;;;;3.50;2.53;;;;;;;27.72;30.60;99859.25;12250410;19;20010;-81
2022/09/01 15:34:22;;;;;;;3.15;2.30;;;;;;;27.70;30.54;99858.78;12266425;19;20014;-82
2022/09/01 15:38:24;;;;;;;6.50;2.35;;;;;;;27.45;30.07;99855.25;12272441;19;20582;-82
2022/09/01 15:42:34;;;;;;;2.92;2.13;;;;;;;27.57;30.29;99854.38;12247982;19;20345;-81
2022/09/01 15:46:37;;;;;;;2.97;2.10;;;;;;;27.56;30.08;99855.56;12270082;19;20471;-81
2022/09/01 15:50:39;;;;;;;4.32;2.47;;;;;;;27.49;30.17;99844.06;12270838;19;20369;-81
2022/09/01 15:54:41;;;;;;;2.30;1.95;;;;;;;27.38;30.48;99843.78;12248019;19;20010;-80
2022/09/01 15:58:46;;;;;;;3.95;2.58;;;;;;;27.42;30.74;99844.69;12272580;19;20019;-82
2022/09/01 16:03:02;;;;;;;3.97;2.72;;;;;;;27.46;30.58;99841.97;12302892;19;20006;-80
2022/09/01 16:07:03;;;;;;;4.47;2.08;;;;;;;27.60;30.76;99839.50;12300759;19;20001;-81
2022/09/01 16:11:11;;;;;;;5.00;2.00;;;;;;;28.27;29.65;99839.59;12296343;19;20022;-82
2022/09/01 16:15:16;;;;;;;4.97;2.20;;;;;;;28.15;29.35;99840.53;12255460;19;20272;-82
2022/09/01 16:19:49;;;;;;;2.30;1.83;;;;;;;27.65;29.98;99836.41;12208645;19;20600;-80
2022/09/01 16:23:51;;;;;;;3.28;2.15;;;;;;;27.25;29.76;99831.69;12224792;19;20019;-79
2022/09/01 16:27:54;;;;;;;4.07;2.40;;;;;;;26.80;30.16;99832.81;12207573;19;20009;-81
2022/09/01 16:31:58;;;;;;;4.55;2.13;;;;;;;26.53;30.55;99836.41;12226478;19;20114;-80
2022/09/01 16:36:15;;;;;;;6.30;2.40;;;;;;;26.19;31.01;99838.56;12224121;19;20783;-81
2022/09/01 16:40:38;;;;;;;6.15;2.20;;;;;;;25.97;31.57;99837.03;12203641;19;20032;-81
2022/09/01 16:44:55;;;;;;;5.32;2.35;;;;;;;25.81;31.84;99831.22;12225546;19;20086;-82
2022/09/01 16:49:33;;;;;;;9.70;2.20;;;;;;;25.64;32.31;99831.44;12205948;19;20007;-82
2022/09/01 16:54:19;;;;;;;3.10;2.00;;;;;;;25.47;32.88;99835.31;12225352;19;20072;-82
2022/09/01 16:58:42;;;;;;;2.83;1.98;;;;;;;25.29;32.77;99823.38;12202275;19;20014;-80
2022/09/01 17:02:57;;;;;;;2.67;1.90;;;;;;;25.17;33.35;99820.53;12223836;19;20370;-81
2022/09/01 17:07:01;;;;;;;3.35;2.30;;;;;;;25.08;33.12;99819.78;12203484;19;20014;-81
2022/09/01 17:11:17;;;;;;;5.30;2.13;;;;;;;24.99;33.20;99820.69;12225932;19;20014;-81
2022/09/01 17:15:39;;;;;;;5.65;2.10;;;;;;;24.90;33.41;99824.75;12202295;19;20010;-81
2022/09/01 17:19:41;;;;;;;4.40;2.30;;;;;;;24.76;33.45;99814.59;12225126;19;20067;-80
2022/09/01 17:23:53;;;;;;;4.53;2.13;;;;;;;24.64;34.00;99819.34;12222351;19;20022;-80
2022/09/01 17:28:07;;;;;;;3.63;2.30;;;;;;;24.52;34.37;99814.47;12197513;19;20373;-81
2022/09/01 17:32:33;;;;;;;3.13;2.22;;;;;;;24.39;34.32;99819.16;12219673;19;20732;-81
2022/09/01 17:37:05;;;;;;;3.05;2.13;;;;;;;24.20;35.15;99818.78;12199290;19;20988;-79
2022/09/01 17:41:15;;;;;;;3.55;2.45;;;;;;;23.97;34.95;99826.69;12219250;19;20011;-81
2022/09/01 17:45:28;;;;;;;4.10;2.28;;;;;;;23.74;35.67;99829.00;12214407;19;20011;-81
2022/09/01 17:49:38;;;;;;;3.22;2.47;;;;;;;23.48;35.92;99835.50;12223429;19;20011;-81
2022/09/01 17:54:08;;;;;;;2.95;2.00;;;;;;;23.22;36.98;99834.72;12217820;19;20029;-81
2022/09/01 17:58:26;;;;;;;3.15;2.17;;;;;;;22.91;37.58;99841.38;12200746;19;21037;-80
2022/09/01 18:02:49;;;;;;;4.28;2.25;;;;;;;22.60;38.15;99850.75;12219763;19;20038;-80
2022/09/01 18:06:56;;;;;;;;;;;;;;;22.33;38.43;99846.28;12199581;19;20003;-80
2022/09/01 18:11:04;;;;;;;4.68;2.63;;;;;;;22.06;39.13;99848.16;12222064;19;19970;-81
2022/09/01 18:15:09;;;;;;;7.45;2.50;;;;;;;21.80;39.83;99852.84;12221408;19;20011;-80
2022/09/01 18:19:17;;;;;;;3.00;2.35;;;;;;;21.55;40.69;99860.00;12206486;19;20038;-80
2022/09/01 18:23:20;;;;;;;3.58;2.17;;;;;;;21.32;41.11;99854.41;12223023;19;20126;-81
2022/09/01 18:27:22;;;;;;;3.35;2.40;;;;;;;21.11;41.51;99858.88;12199121;19;20028;-80
2022/09/01 18:31:33;;;;;;;3.92;2.40;;;;;;;20.90;42.07;99869.78;12217519;19;20014;-81
2022/09/01 18:35:45;;;;;;;7.30;2.65;;;;;;;20.71;42.94;99867.16;12217619;19;20006;-81
2022/09/01 18:40:01;;;;;;;3.90;2.33;;;;;;;20.53;43.10;99870.94;12195034;19;20085;-80
2022/09/01 18:44:40;;;;;;;3.90;2.33;;;;;;;20.36;44.17;99877.97;12219859;19;20031;-79
2022/09/01 18:49:01;;;;;;;7.65;2.40;;;;;;;20.20;44.35;99882.28;12200547;19;20007;-80
2022/09/01 18:53:30;;;;;;;3.72;2.08;;;;;;;20.06;44.91;99887.88;12222695;19;20029;-80
2022/09/01 18:57:38;;;;;;;5.55;2.50;;;;;;;19.93;45.33;99897.91;12201086;19;20066;-80
2022/09/01 19:01:50;;;;;;;4.70;2.42;;;;;;;19.85;45.77;99890.25;12220969;19;20014;-80
2022/09/01 19:06:07;;;;;;;8.38;4.60;;;;;;;19.78;46.13;99895.41;12220434;19;20006;-81
2022/09/01 19:10:17;;;;;;;4.93;2.80;;;;;;;19.74;46.31;99897.16;12201891;19;20094;-80
2022/09/01 19:14:36;;;;;;;3.83;2.50;;;;;;;19.75;46.58;99898.81;12220565;19;20017;-79
2022/09/01 19:18:44;;;;;;;3.08;2.45;;;;;;;19.78;46.65;99900.97;12201914;19;20036;-80
2022/09/01 19:22:52;;;;;;;3.20;2.47;;;;;;;19.82;47.52;99899.25;12216755;19;20027;-80
2022/09/01 19:27:00;;;;;;;3.47;2.30;;;;;;;19.90;47.00;99898.53;12218083;19;20002;-79
2022/09/01 19:31:19;;;;;;;6.43;2.63;;;;;;;19.96;47.46;99899.28;12195397;19;20014;-79
2022/09/01 19:35:21;;;;;;;6.85;2.78;;;;;;;20.02;47.51;99907.25;12212081;19;20021;-80
2022/09/01 19:39:32;;;;;;;2.80;2.30;;;;;;;20.04;47.50;99896.53;12193284;19;20002;-79
2022/09/01 19:43:39;;;;;;;8.05;2.78;;;;;;;20.10;47.55;99902.03;12214538;19;20074;-80
2022/09/01 19:47:49;;;;;;;5.05;2.33;;;;;;;20.14;47.14;99898.34;12217317;19;20003;-80
2022/09/01 19:52:26;;;;;;;3.40;2.70;;;;;;;20.20;47.87;99904.66;12202912;19;20034;-79
2022/09/01 19:57:09;;;;;;;2.75;2.35;;;;;;;20.26;47.02;99900.59;12228187;19;20081;-79
2022/09/01 20:01:16;;;;;;;4.23;2.63;;;;;;;20.27;47.00;99891.06;12206262;19;20011;-79
2022/09/01 20:05:30;;;;;;;4.10;2.83;;;;;;;20.30;46.87;99898.81;12227081;19;20498;-79
2022/09/01 20:10:19;;;;;;;3.42;2.40;;;;;;;20.30;47.29;99892.41;12205089;19;20007;-79
2022/09/01 20:14:45;;;;;;;6.50;2.50;;;;;;;20.26;47.39;99895.84;12219292;19;20010;-81
2022/09/01 20:18:53;;;;;;;6.72;3.22;;;;;;;20.21;47.74;99890.34;12202393;19;20007;-79
2022/09/01 20:22:57;;;;;;;3.53;2.40;;;;;;;20.18;47.89;99890.13;12224145;19;20029;-80
2022/09/01 20:27:02;;;;;;;3.63;2.28;;;;;;;20.13;47.68;99893.03;12226907;19;20027;-79
2022/09/01 20:31:13;;;;;;;3.53;2.45;;;;;;;20.13;47.71;99890.22;12201285;19;20010;-81
2022/09/01 20:35:21;;;;;;;3.83;2.13;;;;;;;20.07;48.08;99888.69;12221884;19;20011;-80